Time;durP1;ratioP1;P1;durP2;ratioP2;P2;SDS_P1;SDS_P2;PMS_P1;PMS_P2;Temp;Humidity;BMP_temperature;BMP_pressure;BME280_temperature;BME280_humidity;BME280_pressure;Samples;Min_cycle;Max_cycle;Signal;HPM_P1;HPM_P2
2022/03/27 00:01:34;;;;;;;17.40;12.82;;;;;;;;;;4973752;28;20043;-68
2022/03/27 00:04:00;;;;;;;19.58;14.80;;;;;;;;;;4973202;28;20062;-68
2022/03/27 00:06:26;;;;;;;17.65;13.60;;;;;;;;;;4973529;28;20045;-68
2022/03/27 00:08:52;;;;;;;17.25;13.02;;;;;;;;;;4966299;28;20118;-68
2022/03/27 00:11:24;;;;;;;16.77;13.50;;;;;;;;;;4969854;28;20498;-68
2022/03/27 00:13:50;;;;;;;19.02;13.38;;;;;;;;;;4969571;28;20062;-68
2022/03/27 00:16:16;;;;;;;17.02;13.40;;;;;;;;;;4973355;28;20426;-68
2022/03/27 00:18:43;;;;;;;16.15;13.57;;;;;;;;;;4969908;28;20126;-68
2022/03/27 00:21:09;;;;;;;16.73;13.20;;;;;;;;;;4965531;28;20038;-68
2022/03/27 00:23:35;;;;;;;17.73;14.15;;;;;;;;;;4971551;28;20043;-68
2022/03/27 00:26:01;;;;;;;16.67;13.35;;;;;;;;;;4971897;28;20070;-68
2022/03/27 00:28:32;;;;;;;19.00;14.07;;;;;;;;;;4969273;28;20055;-68
2022/03/27 00:30:59;;;;;;;18.00;13.80;;;;;;;;;;4966760;28;20054;-68
2022/03/27 00:33:26;;;;;;;20.00;14.43;;;;;;;;;;4967544;28;20050;-68
2022/03/27 00:35:52;;;;;;;22.98;17.33;;;;;;;;;;4976126;28;20073;-68
2022/03/27 00:38:18;;;;;;;30.50;21.85;;;;;;;;;;4975333;28;20053;-68
2022/03/27 00:40:44;;;;;;;32.40;26.63;;;;;;;;;;4963783;28;20047;-68
2022/03/27 00:43:11;;;;;;;23.55;19.00;;;;;;;;;;4975084;28;20406;-68
2022/03/27 00:45:37;;;;;;;22.63;17.30;;;;;;;;;;4976498;28;20050;-68
2022/03/27 00:48:03;;;;;;;23.85;17.55;;;;;;;;;;4977127;28;20050;-68
2022/03/27 00:50:30;;;;;;;22.20;16.85;;;;;;;;;;4971891;28;20039;-68
2022/03/27 00:52:57;;;;;;;20.25;15.77;;;;;;;;;;4972750;28;20042;-68
2022/03/27 00:55:23;;;;;;;18.00;13.98;;;;;;;;;;4966323;28;20486;-68
2022/03/27 00:57:49;;;;;;;20.20;16.08;;;;;;;;;;4973283;28;20175;-68
2022/03/27 01:00:20;;;;;;;23.42;17.15;;;;;;;;;;4975050;28;20057;-68
2022/03/27 01:02:46;;;;;;;24.85;18.90;;;;;;;;;;4972947;28;20108;-68
2022/03/27 01:05:15;;;;;;;22.42;17.55;;;;;;;;;;4975358;28;20039;-68
2022/03/27 01:07:41;;;;;;;32.58;25.30;;;;;;;;;;4966570;28;20055;-68
2022/03/27 01:10:07;;;;;;;28.65;23.88;;;;;;;;;;4973789;28;20039;-68
2022/03/27 01:12:38;;;;;;;21.80;16.38;;;;;;;;;;4973999;28;20505;-67
2022/03/27 01:15:06;;;;;;;25.75;18.17;;;;;;;;;;4974753;28;20421;-68
2022/03/27 01:17:34;;;;;;;27.05;18.15;;;;;;;;;;4975720;28;20078;-68
2022/03/27 01:20:03;;;;;;;28.58;18.95;;;;;;;;;;4975621;28;20047;-68
2022/03/27 01:22:29;;;;;;;25.45;18.83;;;;;;;;;;4968717;28;20039;-67
2022/03/27 01:24:55;;;;;;;24.08;16.75;;;;;;;;;;4975642;28;20051;-67
2022/03/27 01:27:22;;;;;;;25.75;14.30;;;;;;;;;;4975680;28;20046;-67
2022/03/27 01:29:48;;;;;;;24.73;14.60;;;;;;;;;;4975886;28;20046;-67
2022/03/27 01:32:15;;;;;;;24.70;13.55;;;;;;;;;;4975603;28;20113;-67
2022/03/27 01:34:44;;;;;;;23.90;15.07;;;;;;;;;;4974197;28;20047;-67
2022/03/27 01:37:10;;;;;;;26.05;15.32;;;;;;;;;;4971591;28;20047;-67
2022/03/27 01:39:38;;;;;;;28.80;15.45;;;;;;;;;;4963714;28;20039;-67
2022/03/27 01:42:05;;;;;;;24.88;16.00;;;;;;;;;;4972817;28;20519;-68
2022/03/27 01:44:31;;;;;;;28.10;17.05;;;;;;;;;;4975342;28;20082;-67
2022/03/27 01:46:57;;;;;;;27.00;16.13;;;;;;;;;;4976245;28;20078;-67
2022/03/27 01:49:24;;;;;;;25.33;16.10;;;;;;;;;;4963792;28;20039;-67
2022/03/27 01:51:50;;;;;;;23.38;15.65;;;;;;;;;;4971408;28;20243;-68
2022/03/27 01:54:19;;;;;;;23.48;14.75;;;;;;;;;;4973214;28;20046;-67
2022/03/27 01:56:45;;;;;;;25.15;14.95;;;;;;;;;;4972568;28;20058;-68
2022/03/27 01:59:11;;;;;;;24.67;14.52;;;;;;;;;;4973861;28;20039;-68
2022/03/27 02:01:38;;;;;;;23.02;13.10;;;;;;;;;;4972476;28;20481;-68
2022/03/27 02:04:04;;;;;;;20.80;13.32;;;;;;;;;;4955199;28;20494;-68
2022/03/27 02:06:31;;;;;;;20.20;11.65;;;;;;;;;;4972565;28;20035;-68
2022/03/27 02:08:59;;;;;;;19.23;12.02;;;;;;;;;;4965512;28;20053;-68
2022/03/27 02:11:25;;;;;;;18.80;11.05;;;;;;;;;;4971805;28;20133;-68
2022/03/27 02:13:51;;;;;;;18.38;11.57;;;;;;;;;;4970432;28;20139;-68
2022/03/27 02:16:17;;;;;;;20.20;11.73;;;;;;;;;;4974775;28;20093;-68
2022/03/27 02:18:43;;;;;;;20.02;11.40;;;;;;;;;;4973943;28;20034;-68
2022/03/27 02:21:10;;;;;;;22.27;10.77;;;;;;;;;;4975807;28;20063;-68
2022/03/27 02:23:36;;;;;;;15.55;9.75;;;;;;;;;;4973730;28;20082;-68
2022/03/27 02:26:02;;;;;;;19.35;9.70;;;;;;;;;;4974668;28;20541;-67
2022/03/27 02:28:28;;;;;;;18.65;9.05;;;;;;;;;;4974036;28;20163;-67
2022/03/27 02:30:54;;;;;;;18.92;9.15;;;;;;;;;;4956522;28;20134;-68
2022/03/27 02:33:20;;;;;;;17.95;8.75;;;;;;;;;;4967260;28;20073;-68
2022/03/27 02:35:47;;;;;;;19.92;8.43;;;;;;;;;;4967523;28;20582;-68
2022/03/27 02:38:13;;;;;;;21.13;8.80;;;;;;;;;;4970067;28;20058;-68
2022/03/27 02:40:39;;;;;;;16.20;8.63;;;;;;;;;;4973245;28;20414;-67
2022/03/27 02:43:06;;;;;;;16.85;8.50;;;;;;;;;;4974126;28;20053;-67
2022/03/27 02:45:32;;;;;;;18.42;8.82;;;;;;;;;;4973196;28;20043;-67
2022/03/27 02:47:58;;;;;;;18.52;8.48;;;;;;;;;;4974707;28;20046;-68
2022/03/27 02:50:26;;;;;;;17.80;8.77;;;;;;;;;;4974124;28;20047;-68
2022/03/27 02:52:52;;;;;;;16.13;8.70;;;;;;;;;;4974366;28;20058;-67
2022/03/27 02:55:18;;;;;;;18.10;9.25;;;;;;;;;;4973636;28;20494;-67
2022/03/27 02:57:44;;;;;;;18.50;9.93;;;;;;;;;;4973821;28;20053;-67
2022/03/27 03:00:11;;;;;;;16.60;8.75;;;;;;;;;;4973555;28;20042;-68
2022/03/27 03:02:37;;;;;;;19.00;8.77;;;;;;;;;;4973857;28;20414;-68
2022/03/27 03:05:04;;;;;;;15.43;8.63;;;;;;;;;;4973292;28;20122;-67
2022/03/27 03:07:31;;;;;;;15.25;8.98;;;;;;;;;;4962284;28;20043;-67
2022/03/27 03:09:57;;;;;;;20.52;10.25;;;;;;;;;;4964036;28;20047;-67
2022/03/27 03:12:23;;;;;;;20.52;9.40;;;;;;;;;;4971637;28;20053;-67
2022/03/27 03:14:55;;;;;;;17.23;9.48;;;;;;;;;;4973787;28;20047;-67
2022/03/27 03:17:21;;;;;;;18.65;9.13;;;;;;;;;;4971158;28;20050;-67
2022/03/27 03:19:47;;;;;;;19.63;9.95;;;;;;;;;;4955504;28;20042;-67
2022/03/27 03:22:14;;;;;;;18.33;9.38;;;;;;;;;;4966692;28;20038;-67
2022/03/27 03:24:40;;;;;;;19.48;9.57;;;;;;;;;;4969842;28;20053;-67
2022/03/27 03:27:06;;;;;;;17.80;8.60;;;;;;;;;;4969942;28;20051;-67
2022/03/27 03:29:33;;;;;;;17.00;9.73;;;;;;;;;;4973537;28;20094;-67
2022/03/27 03:31:59;;;;;;;15.25;9.15;;;;;;;;;;4972674;28;20161;-68
2022/03/27 03:34:25;;;;;;;20.42;9.10;;;;;;;;;;4961147;28;20034;-67
2022/03/27 03:36:51;;;;;;;17.83;9.60;;;;;;;;;;4973042;28;20122;-67
2022/03/27 03:39:17;;;;;;;15.02;9.07;;;;;;;;;;4973573;28;20043;-67
2022/03/27 03:41:43;;;;;;;14.52;8.70;;;;;;;;;;4972314;28;20463;-67
2022/03/27 03:44:10;;;;;;;19.67;9.65;;;;;;;;;;4973793;28;20532;-67
2022/03/27 03:46:36;;;;;;;17.77;9.07;;;;;;;;;;4973522;28;20053;-67
2022/03/27 03:49:06;;;;;;;17.98;9.40;;;;;;;;;;4971691;28;20054;-67
2022/03/27 03:51:34;;;;;;;16.87;8.80;;;;;;;;;;4963896;28;20502;-67
2022/03/27 03:54:00;;;;;;;20.42;9.77;;;;;;;;;;4969621;28;20352;-67
2022/03/27 03:56:26;;;;;;;16.77;9.45;;;;;;;;;;4972964;28;20425;-67
2022/03/27 03:58:52;;;;;;;18.45;9.52;;;;;;;;;;4973736;28;20057;-68
2022/03/27 04:01:18;;;;;;;15.65;8.73;;;;;;;;;;4972771;28;20050;-67
2022/03/27 04:03:47;;;;;;;16.20;8.68;;;;;;;;;;4970021;28;20036;-66
2022/03/27 04:06:13;;;;;;;20.00;9.40;;;;;;;;;;4972325;28;20047;-67
2022/03/27 04:08:39;;;;;;;16.17;9.38;;;;;;;;;;4970134;28;20107;-67
2022/03/27 04:11:05;;;;;;;19.38;9.32;;;;;;;;;;4973089;28;20046;-67
2022/03/27 04:13:31;;;;;;;21.23;9.85;;;;;;;;;;4970828;28;20525;-67
2022/03/27 04:15:57;;;;;;;21.05;9.23;;;;;;;;;;4953511;28;20130;-67
2022/03/27 04:18:24;;;;;;;19.75;9.43;;;;;;;;;;4968424;28;20042;-67
2022/03/27 04:20:50;;;;;;;21.80;9.77;;;;;;;;;;4967669;28;20062;-67
2022/03/27 04:23:16;;;;;;;17.23;9.35;;;;;;;;;;4972226;28;20047;-68
2022/03/27 04:25:41;;;;;;;22.83;10.00;;;;;;;;;;4964174;28;20043;-68
2022/03/27 04:28:10;;;;;;;19.17;9.68;;;;;;;;;;4972852;28;20043;-68
2022/03/27 04:30:37;;;;;;;24.50;9.63;;;;;;;;;;4973767;28;20127;-68
2022/03/27 04:33:04;;;;;;;24.15;9.15;;;;;;;;;;4972599;28;20039;-68
2022/03/27 04:35:30;;;;;;;19.05;9.50;;;;;;;;;;4972379;28;20049;-67
2022/03/27 04:37:56;;;;;;;18.90;9.65;;;;;;;;;;4972488;28;20054;-68
2022/03/27 04:40:22;;;;;;;25.60;10.05;;;;;;;;;;4973056;28;20078;-68
2022/03/27 04:42:48;;;;;;;25.77;9.80;;;;;;;;;;4961482;28;20047;-68
2022/03/27 04:45:14;;;;;;;21.58;10.73;;;;;;;;;;4971769;28;20510;-68
2022/03/27 04:47:40;;;;;;;22.13;10.32;;;;;;;;;;4972466;28;20078;-68
2022/03/27 04:50:06;;;;;;;25.30;10.82;;;;;;;;;;4972843;28;20039;-68
2022/03/27 04:52:32;;;;;;;28.10;10.57;;;;;;;;;;4967819;28;20047;-68
2022/03/27 04:54:59;;;;;;;27.58;11.63;;;;;;;;;;4964389;28;20382;-68
2022/03/27 04:57:24;;;;;;;30.63;10.20;;;;;;;;;;4971082;28;20438;-68
2022/03/27 04:59:50;;;;;;;26.75;10.77;;;;;;;;;;4970320;28;20055;-68
2022/03/27 05:02:18;;;;;;;24.27;10.00;;;;;;;;;;4969449;28;20055;-68
2022/03/27 05:04:44;;;;;;;23.75;9.23;;;;;;;;;;4970859;28;20047;-68
2022/03/27 05:07:10;;;;;;;30.52;10.02;;;;;;;;;;4965116;28;20043;-68
2022/03/27 05:09:36;;;;;;;24.35;9.82;;;;;;;;;;4971175;28;20039;-68
2022/03/27 05:12:02;;;;;;;25.55;10.00;;;;;;;;;;4957170;28;20099;-68
2022/03/27 05:14:27;;;;;;;31.60;9.73;;;;;;;;;;4971746;28;20043;-68
2022/03/27 05:16:53;;;;;;;28.65;9.43;;;;;;;;;;4973295;28;20046;-68
2022/03/27 05:19:19;;;;;;;32.15;9.75;;;;;;;;;;4976466;28;20047;-68
2022/03/27 05:21:45;;;;;;;33.95;10.40;;;;;;;;;;4975710;28;20050;-68
2022/03/27 05:24:11;;;;;;;30.67;10.32;;;;;;;;;;4971021;28;20126;-68
2022/03/27 05:26:37;;;;;;;32.85;10.43;;;;;;;;;;4971532;28;20043;-68
2022/03/27 05:29:06;;;;;;;35.85;11.68;;;;;;;;;;4975876;28;20141;-68
2022/03/27 05:31:32;;;;;;;37.90;11.18;;;;;;;;;;4973981;28;20513;-68
2022/03/27 05:33:58;;;;;;;39.97;12.43;;;;;;;;;;4975625;28;20053;-68
2022/03/27 05:36:25;;;;;;;50.00;16.15;;;;;;;;;;4974872;28;20130;-68
2022/03/27 05:38:50;;;;;;;52.63;17.63;;;;;;;;;;4975077;28;20059;-67
2022/03/27 05:41:16;;;;;;;51.55;17.23;;;;;;;;;;4975714;28;20042;-68
2022/03/27 05:43:42;;;;;;;53.00;17.90;;;;;;;;;;4965352;28;20039;-68
2022/03/27 05:46:08;;;;;;;55.47;19.30;;;;;;;;;;4958543;28;20398;-68
2022/03/27 05:48:34;;;;;;;56.63;19.85;;;;;;;;;;4974388;28;20062;-68
2022/03/27 05:51:00;;;;;;;54.63;18.85;;;;;;;;;;4975838;28;20038;-68
2022/03/27 05:53:26;;;;;;;59.47;19.00;;;;;;;;;;4967050;28;20133;-68
2022/03/27 05:55:53;;;;;;;53.78;19.40;;;;;;;;;;4974437;28;20080;-68
2022/03/27 05:58:19;;;;;;;60.33;21.10;;;;;;;;;;4975863;28;20085;-68
2022/03/27 06:00:45;;;;;;;63.75;20.75;;;;;;;;;;4973850;28;20418;-68
2022/03/27 06:03:11;;;;;;;49.92;15.43;;;;;;;;;;4983396;28;20511;-68
2022/03/27 06:05:37;;;;;;;52.05;14.35;;;;;;;;;;4974091;28;20051;-68
2022/03/27 06:08:03;;;;;;;52.67;13.13;;;;;;;;;;4975444;28;20513;-68
2022/03/27 06:10:31;;;;;;;57.47;13.38;;;;;;;;;;4964087;28;20419;-67
2022/03/27 06:12:57;;;;;;;53.22;13.45;;;;;;;;;;4970803;28;20066;-67
2022/03/27 06:15:23;;;;;;;51.75;13.32;;;;;;;;;;4974609;28;20049;-68
2022/03/27 06:17:50;;;;;;;55.67;12.45;;;;;;;;;;4965722;28;20058;-68
2022/03/27 06:20:17;;;;;;;50.55;12.60;;;;;;;;;;4974021;28;20082;-68
2022/03/27 06:22:44;;;;;;;53.85;13.30;;;;;;;;;;4973799;28;20047;-68
2022/03/27 06:25:11;;;;;;;46.25;11.73;;;;;;;;;;4970054;28;20038;-67
2022/03/27 06:27:38;;;;;;;53.75;12.40;;;;;;;;;;4972966;28;20051;-68
2022/03/27 06:30:05;;;;;;;42.67;12.13;;;;;;;;;;4974050;28;20051;-67
2022/03/27 06:32:31;;;;;;;46.58;12.48;;;;;;;;;;4975283;28;20384;-67
2022/03/27 06:34:58;;;;;;;47.30;11.02;;;;;;;;;;4967936;28;20061;-68
2022/03/27 06:37:26;;;;;;;55.63;10.77;;;;;;;;;;4972734;28;20122;-67
2022/03/27 06:39:52;;;;;;;52.28;11.38;;;;;;;;;;4973599;28;20055;-67
2022/03/27 06:42:18;;;;;;;54.45;10.43;;;;;;;;;;4973272;28;20051;-67
2022/03/27 06:44:44;;;;;;;51.45;13.93;;;;;;;;;;4974270;28;20134;-67
2022/03/27 06:47:10;;;;;;;53.80;13.25;;;;;;;;;;4974638;28;20046;-68
2022/03/27 06:49:36;;;;;;;53.60;15.35;;;;;;;;;;4974407;28;20065;-67
2022/03/27 06:52:03;;;;;;;54.78;14.82;;;;;;;;;;4974294;28;20055;-67
2022/03/27 06:54:29;;;;;;;52.30;12.80;;;;;;;;;;4973742;28;20046;-67
2022/03/27 06:56:55;;;;;;;51.42;12.02;;;;;;;;;;4974124;28;20074;-67
2022/03/27 06:59:21;;;;;;;55.08;11.30;;;;;;;;;;4974035;28;20038;-67
2022/03/27 07:04:32;;;;;;;49.65;10.88;;;;;;;;;;4964990;28;20050;-67
2022/03/27 07:07:00;;;;;;;39.40;10.63;;;;;;;;;;4971365;28;20058;-67
2022/03/27 07:09:26;;;;;;;47.13;10.05;;;;;;;;;;4965173;28;20085;-67
2022/03/27 07:11:52;;;;;;;45.95;9.73;;;;;;;;;;4969936;28;20093;-67
2022/03/27 07:14:18;;;;;;;52.03;10.98;;;;;;;;;;4973409;28;20123;-68
2022/03/27 07:16:44;;;;;;;46.88;9.50;;;;;;;;;;4973480;28;20051;-68
2022/03/27 07:19:14;;;;;;;42.58;8.50;;;;;;;;;;4966660;28;20073;-68
2022/03/27 07:21:41;;;;;;;49.75;9.77;;;;;;;;;;4964230;28;20054;-68
2022/03/27 07:24:08;;;;;;;51.03;9.20;;;;;;;;;;4973838;28;20054;-67
2022/03/27 07:26:35;;;;;;;52.50;10.05;;;;;;;;;;4972659;28;20046;-67
2022/03/27 07:29:02;;;;;;;48.03;9.93;;;;;;;;;;4973967;28;20046;-68
2022/03/27 07:31:28;;;;;;;40.95;9.05;;;;;;;;;;4973396;28;20043;-67
2022/03/27 07:33:55;;;;;;;46.38;9.75;;;;;;;;;;4971651;28;20070;-67
2022/03/27 07:36:24;;;;;;;42.50;8.52;;;;;;;;;;4972570;28;20089;-68
2022/03/27 07:38:50;;;;;;;51.15;9.68;;;;;;;;;;4973775;28;20054;-68
2022/03/27 07:41:16;;;;;;;41.50;7.93;;;;;;;;;;4946872;28;20104;-68
2022/03/27 07:43:42;;;;;;;40.15;8.48;;;;;;;;;;4970986;28;20074;-68
2022/03/27 07:46:09;;;;;;;40.78;8.00;;;;;;;;;;4970882;28;20049;-68
2022/03/27 07:48:35;;;;;;;43.50;8.45;;;;;;;;;;4974298;28;20053;-68
2022/03/27 07:51:01;;;;;;;36.83;7.90;;;;;;;;;;4972718;28;20051;-68
2022/03/27 07:53:27;;;;;;;38.45;7.47;;;;;;;;;;4971582;28;20043;-68
2022/03/27 07:55:53;;;;;;;51.10;8.63;;;;;;;;;;4971936;28;20091;-68
2022/03/27 07:58:19;;;;;;;38.67;8.55;;;;;;;;;;4973538;28;20090;-68
2022/03/27 08:00:45;;;;;;;47.70;9.02;;;;;;;;;;4973619;28;20497;-68
2022/03/27 08:03:12;;;;;;;37.45;8.25;;;;;;;;;;4972482;28;20393;-68
2022/03/27 08:05:38;;;;;;;43.00;8.70;;;;;;;;;;4974021;28;20043;-68
2022/03/27 08:08:04;;;;;;;49.50;10.60;;;;;;;;;;4972319;28;20043;-68
2022/03/27 08:10:30;;;;;;;43.22;8.90;;;;;;;;;;4974094;28;20061;-68
2022/03/27 08:12:57;;;;;;;45.95;9.32;;;;;;;;;;4973871;28;20052;-68
2022/03/27 08:15:23;;;;;;;53.55;9.77;;;;;;;;;;4956477;28;20090;-68
2022/03/27 08:17:53;;;;;;;51.67;9.48;;;;;;;;;;4973650;28;20422;-68
2022/03/27 08:20:19;;;;;;;43.60;9.40;;;;;;;;;;4973961;28;20055;-68
2022/03/27 08:22:45;;;;;;;49.42;9.38;;;;;;;;;;4973341;28;20054;-68
2022/03/27 08:26:55;;;;;;;46.50;9.13;;;;;;;;;;4973476;28;20127;-68
2022/03/27 08:27:57;;;;;;;52.17;11.35;;;;;;;;;;4973038;28;20398;-68
2022/03/27 08:30:23;;;;;;;51.58;11.27;;;;;;;;;;4968558;28;20042;-68
2022/03/27 08:32:49;;;;;;;52.47;11.15;;;;;;;;;;4973679;28;20050;-68
2022/03/27 08:35:15;;;;;;;46.10;9.90;;;;;;;;;;4971758;28;20055;-68
2022/03/27 08:37:41;;;;;;;48.47;10.00;;;;;;;;;;4972156;28;20073;-68
2022/03/27 08:40:07;;;;;;;48.17;9.90;;;;;;;;;;4972361;28;20043;-68
2022/03/27 08:42:34;;;;;;;48.85;10.15;;;;;;;;;;4969118;28;20125;-68
2022/03/27 08:45:00;;;;;;;47.60;9.82;;;;;;;;;;4969171;28;20051;-68
2022/03/27 08:47:26;;;;;;;51.40;9.90;;;;;;;;;;4964421;28;20181;-69
2022/03/27 08:49:59;;;;;;;46.17;10.43;;;;;;;;;;4964346;28;20042;-68
2022/03/27 08:52:32;;;;;;;50.85;10.85;;;;;;;;;;4976621;28;20085;-69
2022/03/27 08:55:06;;;;;;;46.88;11.02;;;;;;;;;;4977275;28;20055;-68
2022/03/27 08:57:38;;;;;;;46.17;10.25;;;;;;;;;;4976907;28;20059;-68
2022/03/27 09:00:05;;;;;;;45.88;10.07;;;;;;;;;;4975516;28;20042;-67
2022/03/27 09:02:32;;;;;;;48.97;10.38;;;;;;;;;;4972292;28;20153;-67
2022/03/27 09:04:59;;;;;;;40.53;9.40;;;;;;;;;;4976390;28;20462;-67
2022/03/27 09:07:25;;;;;;;45.35;10.75;;;;;;;;;;4976332;28;20050;-67
2022/03/27 09:09:51;;;;;;;42.55;9.52;;;;;;;;;;4975534;28;20118;-67
2022/03/27 09:12:19;;;;;;;40.03;8.93;;;;;;;;;;4976189;28;20046;-67
2022/03/27 09:14:45;;;;;;;43.05;8.90;;;;;;;;;;4975268;28;20049;-67
2022/03/27 09:17:12;;;;;;;39.75;9.00;;;;;;;;;;4976733;28;20046;-66
2022/03/27 09:19:56;;;;;;;47.00;9.52;;;;;;;;;;4976710;28;20046;-67
2022/03/27 09:22:29;;;;;;;44.33;9.30;;;;;;;;;;4975856;28;20054;-67
2022/03/27 09:24:59;;;;;;;44.17;9.55;;;;;;;;;;4971549;28;20486;-67
2022/03/27 09:27:29;;;;;;;42.65;9.65;;;;;;;;;;4963686;28;20043;-67
2022/03/27 09:30:00;;;;;;;41.08;8.63;;;;;;;;;;4976772;28;20121;-68
2022/03/27 09:32:27;;;;;;;39.45;8.93;;;;;;;;;;4975528;28;20050;-67
2022/03/27 09:35:01;;;;;;;38.05;8.93;;;;;;;;;;4976235;28;20055;-68
2022/03/27 09:37:35;;;;;;;43.40;8.77;;;;;;;;;;4975945;28;20051;-68
2022/03/27 09:40:02;;;;;;;41.83;8.35;;;;;;;;;;4976344;28;20102;-68
2022/03/27 09:42:28;;;;;;;38.83;8.93;;;;;;;;;;4976099;28;20054;-68
2022/03/27 09:45:13;;;;;;;41.25;10.32;;;;;;;;;;4976244;28;20145;-68
2022/03/27 09:47:39;;;;;;;39.35;8.80;;;;;;;;;;4975832;28;20046;-68
2022/03/27 09:50:06;;;;;;;35.30;8.55;;;;;;;;;;4975564;28;20134;-68
2022/03/27 09:52:33;;;;;;;36.90;8.05;;;;;;;;;;4973230;28;20623;-68
2022/03/27 09:55:09;;;;;;;38.85;9.00;;;;;;;;;;4970049;28;20046;-69
2022/03/27 09:57:35;;;;;;;36.58;8.25;;;;;;;;;;4974238;28;20054;-68
2022/03/27 10:00:13;;;;;;;44.25;8.25;;;;;;;;;;4975735;28;20047;-68
2022/03/27 10:02:40;;;;;;;42.20;8.55;;;;;;;;;;4973127;28;20046;-68
2022/03/27 10:05:08;;;;;;;35.95;8.18;;;;;;;;;;4972661;28;20054;-67
2022/03/27 10:07:35;;;;;;;42.45;8.73;;;;;;;;;;4970613;28;20039;-68
2022/03/27 10:10:02;;;;;;;38.85;8.50;;;;;;;;;;4971785;28;20522;-66
2022/03/27 10:12:29;;;;;;;38.92;8.65;;;;;;;;;;4975302;28;20042;-67
2022/03/27 10:15:00;;;;;;;40.22;9.05;;;;;;;;;;4970155;28;20134;-68
2022/03/27 10:17:27;;;;;;;40.00;8.80;;;;;;;;;;4965525;28;20046;-68
2022/03/27 10:19:54;;;;;;;38.22;8.38;;;;;;;;;;4975582;28;20305;-68
2022/03/27 10:22:21;;;;;;;40.60;8.68;;;;;;;;;;4973926;28;20041;-68
2022/03/27 10:24:51;;;;;;;39.75;8.32;;;;;;;;;;4977325;28;20105;-68
2022/03/27 10:27:18;;;;;;;45.38;8.52;;;;;;;;;;4970380;28;20043;-68
2022/03/27 10:29:44;;;;;;;33.28;6.57;;;;;;;;;;4957195;28;20051;-68
2022/03/27 10:32:11;;;;;;;36.78;7.60;;;;;;;;;;4962525;28;20035;-68
2022/03/27 10:34:43;;;;;;;35.78;7.63;;;;;;;;;;4975345;28;20089;-67
2022/03/27 10:37:29;;;;;;;34.15;7.60;;;;;;;;;;4974590;28;20494;-68
2022/03/27 10:40:02;;;;;;;32.47;7.70;;;;;;;;;;4958250;28;20453;-68
2022/03/27 10:42:33;;;;;;;34.45;6.88;;;;;;;;;;4974907;28;20117;-68
2022/03/27 10:44:59;;;;;;;;;;;;;;;;;;4975696;28;20074;-68
2022/03/27 10:47:28;;;;;;;30.52;6.88;;;;;;;;;;4973599;28;19969;-67
2022/03/27 10:50:08;;;;;;;31.88;7.15;;;;;;;;;;4975350;28;20054;-67
2022/03/27 10:52:37;;;;;;;31.40;6.25;;;;;;;;;;4974552;28;20100;-67
2022/03/27 10:55:11;;;;;;;29.38;6.40;;;;;;;;;;4975219;28;20110;-67
2022/03/27 10:57:41;;;;;;;29.38;7.10;;;;;;;;;;4965033;28;20051;-67
2022/03/27 11:00:11;;;;;;;36.15;7.10;;;;;;;;;;4969742;28;20473;-68
2022/03/27 11:02:50;;;;;;;31.52;6.97;;;;;;;;;;4962714;28;20047;-68
2022/03/27 11:05:37;;;;;;;31.88;6.38;;;;;;;;;;4960291;28;20051;-68
2022/03/27 11:08:18;;;;;;;26.63;7.05;;;;;;;;;;4962574;28;20066;-68
2022/03/27 11:10:49;;;;;;;29.27;6.20;;;;;;;;;;4972627;28;20046;-68
2022/03/27 11:13:28;;;;;;;27.83;5.53;;;;;;;;;;4968655;28;20035;-68
2022/03/27 11:16:03;;;;;;;28.52;7.18;;;;;;;;;;4966357;28;20054;-68
2022/03/27 11:18:36;;;;;;;32.05;6.80;;;;;;;;;;4974499;28;20097;-68
2022/03/27 11:21:02;;;;;;;27.63;6.10;;;;;;;;;;4973602;28;20050;-68
2022/03/27 11:23:29;;;;;;;33.03;7.30;;;;;;;;;;4974454;28;20054;-68
2022/03/27 11:25:56;;;;;;;36.70;7.10;;;;;;;;;;4973452;28;20110;-68
2022/03/27 11:28:22;;;;;;;27.42;6.05;;;;;;;;;;4973670;28;20046;-68
2022/03/27 11:30:48;;;;;;;33.65;6.72;;;;;;;;;;4972667;28;20062;-68
2022/03/27 11:33:21;;;;;;;28.35;5.95;;;;;;;;;;4974445;28;20407;-68
2022/03/27 11:36:03;;;;;;;28.98;6.40;;;;;;;;;;4973934;28;20047;-68
2022/03/27 11:38:30;;;;;;;31.10;6.10;;;;;;;;;;4974152;28;20134;-68
2022/03/27 11:40:57;;;;;;;32.13;6.30;;;;;;;;;;4974161;28;20050;-68
2022/03/27 11:43:30;;;;;;;32.25;7.00;;;;;;;;;;4972188;28;20071;-68
2022/03/27 11:45:57;;;;;;;32.58;7.10;;;;;;;;;;4973791;28;20072;-68
2022/03/27 11:48:23;;;;;;;26.55;6.55;;;;;;;;;;4973788;28;20051;-68
2022/03/27 11:50:49;;;;;;;24.90;7.00;;;;;;;;;;4973079;28;20152;-68
2022/03/27 11:53:16;;;;;;;22.88;6.07;;;;;;;;;;4973891;28;20053;-68
2022/03/27 11:55:42;;;;;;;25.25;5.70;;;;;;;;;;4974195;28;20066;-68
2022/03/27 11:58:11;;;;;;;26.80;6.20;;;;;;;;;;4966023;28;20498;-68
2022/03/27 12:00:39;;;;;;;33.58;7.35;;;;;;;;;;4972890;28;20050;-67
2022/03/27 12:03:13;;;;;;;26.65;6.35;;;;;;;;;;4969563;28;20043;-68
2022/03/27 12:05:39;;;;;;;32.83;6.03;;;;;;;;;;4971025;28;20494;-68
2022/03/27 12:08:06;;;;;;;28.80;6.28;;;;;;;;;;4973371;28;20051;-68
2022/03/27 12:10:40;;;;;;;30.23;6.10;;;;;;;;;;4972850;28;20086;-66
2022/03/27 12:13:08;;;;;;;23.50;6.22;;;;;;;;;;4963894;28;20039;-67
2022/03/27 12:15:46;;;;;;;25.13;5.82;;;;;;;;;;4969467;28;20047;-67
2022/03/27 12:18:12;;;;;;;25.92;6.05;;;;;;;;;;4967154;28;20048;-68
2022/03/27 12:20:48;;;;;;;27.45;5.90;;;;;;;;;;4974761;28;20085;-67
2022/03/27 12:23:18;;;;;;;28.50;5.70;;;;;;;;;;4965088;28;20051;-68
2022/03/27 12:25:44;;;;;;;25.25;4.57;;;;;;;;;;4969901;28;20045;-67
2022/03/27 12:30:55;;;;;;;24.52;5.90;;;;;;;;;;4976335;28;20051;-67
2022/03/27 12:33:23;;;;;;;24.08;5.13;;;;;;;;;;4972108;28;20057;-68
2022/03/27 12:36:10;;;;;;;26.25;5.43;;;;;;;;;;4976797;28;20055;-67
2022/03/27 12:38:37;;;;;;;26.73;5.57;;;;;;;;;;4977445;28;20059;-68
2022/03/27 12:41:03;;;;;;;25.02;5.63;;;;;;;;;;4977125;28;20050;-68
2022/03/27 12:43:30;;;;;;;23.20;5.45;;;;;;;;;;4977409;28;20489;-68
2022/03/27 12:45:56;;;;;;;21.33;5.20;;;;;;;;;;4977417;28;20038;-68
2022/03/27 12:48:25;;;;;;;25.98;5.70;;;;;;;;;;4977069;28;20055;-68
2022/03/27 12:50:55;;;;;;;24.80;5.22;;;;;;;;;;4977125;28;20057;-68
2022/03/27 12:53:21;;;;;;;26.55;6.05;;;;;;;;;;4970647;28;20047;-68
2022/03/27 12:55:47;;;;;;;25.25;5.63;;;;;;;;;;4967312;28;20082;-68
2022/03/27 12:58:16;;;;;;;22.00;5.10;;;;;;;;;;4975427;28;20078;-68
2022/03/27 13:00:43;;;;;;;18.95;5.40;;;;;;;;;;4976912;28;20102;-68
2022/03/27 13:03:13;;;;;;;20.55;4.43;;;;;;;;;;4974709;28;20038;-68
2022/03/27 13:05:40;;;;;;;20.33;4.55;;;;;;;;;;4971675;28;20057;-68
2022/03/27 13:08:08;;;;;;;20.10;5.63;;;;;;;;;;4977490;28;20043;-68
2022/03/27 13:10:37;;;;;;;23.13;4.80;;;;;;;;;;4978052;28;20490;-68
2022/03/27 13:13:07;;;;;;;18.77;4.50;;;;;;;;;;4975450;28;20081;-68
2022/03/27 13:15:41;;;;;;;19.03;4.57;;;;;;;;;;4976659;28;20079;-68
2022/03/27 13:18:08;;;;;;;17.80;4.32;;;;;;;;;;4976128;28;20309;-68
2022/03/27 13:20:34;;;;;;;18.20;4.43;;;;;;;;;;4976434;28;20043;-68
2022/03/27 13:23:01;;;;;;;18.58;4.20;;;;;;;;;;4971163;28;20051;-68
2022/03/27 13:25:27;;;;;;;16.65;4.38;;;;;;;;;;4976483;28;20039;-68
2022/03/27 13:27:55;;;;;;;18.20;4.20;;;;;;;;;;4975174;28;20064;-68
2022/03/27 13:30:21;;;;;;;25.58;5.82;;;;;;;;;;4974801;28;20039;-67
2022/03/27 13:32:47;;;;;;;21.80;5.35;;;;;;;;;;4975047;28;20035;-68
2022/03/27 13:35:13;;;;;;;24.27;5.13;;;;;;;;;;4972616;28;20042;-68
2022/03/27 13:37:39;;;;;;;20.90;5.05;;;;;;;;;;4975202;28;20050;-68
2022/03/27 13:40:05;;;;;;;20.95;5.22;;;;;;;;;;4974852;28;20050;-68
2022/03/27 13:45:16;;;;;;;18.88;5.07;;;;;;;;;;4971683;28;20052;-67
2022/03/27 13:47:42;;;;;;;22.52;5.63;;;;;;;;;;4974888;28;20049;-68
2022/03/27 13:50:08;;;;;;;19.38;5.10;;;;;;;;;;4975294;28;20046;-67
2022/03/27 13:52:34;;;;;;;23.17;5.43;;;;;;;;;;4974552;28;20062;-67
2022/03/27 13:55:00;;;;;;;19.60;4.88;;;;;;;;;;4974713;28;20057;-68
2022/03/27 13:57:27;;;;;;;19.15;4.75;;;;;;;;;;4975129;28;20117;-68
2022/03/27 13:59:53;;;;;;;19.08;4.57;;;;;;;;;;4975305;28;20042;-69
2022/03/27 14:02:21;;;;;;;28.75;5.80;;;;;;;;;;4972516;28;20097;-68
2022/03/27 14:04:47;;;;;;;21.73;5.28;;;;;;;;;;4975346;28;20042;-68
2022/03/27 14:07:13;;;;;;;22.15;5.63;;;;;;;;;;4983759;28;20077;-68
2022/03/27 14:09:41;;;;;;;26.55;5.68;;;;;;;;;;4975358;28;20051;-68
2022/03/27 14:12:08;;;;;;;21.83;5.03;;;;;;;;;;4962726;28;20122;-67
2022/03/27 14:14:34;;;;;;;26.55;5.25;;;;;;;;;;4970317;28;20081;-68
2022/03/27 14:17:02;;;;;;;22.65;5.32;;;;;;;;;;4975585;28;20053;-68
2022/03/27 14:19:28;;;;;;;21.05;5.25;;;;;;;;;;4975534;28;20054;-67
2022/03/27 14:21:56;;;;;;;21.02;5.22;;;;;;;;;;4974326;28;20047;-68
2022/03/27 14:24:22;;;;;;;22.13;5.60;;;;;;;;;;4974957;28;20043;-67
2022/03/27 14:26:48;;;;;;;22.70;5.30;;;;;;;;;;4965367;28;20055;-67
2022/03/27 14:29:14;;;;;;;26.65;6.10;;;;;;;;;;4974354;28;20039;-67
2022/03/27 14:31:40;;;;;;;24.73;5.50;;;;;;;;;;4973992;28;20130;-67
2022/03/27 14:34:06;;;;;;;26.63;5.68;;;;;;;;;;4975042;28;20490;-67
2022/03/27 14:36:33;;;;;;;22.48;4.93;;;;;;;;;;4971453;28;20061;-67